sensor_id;sensor_type;location;lat;lon;timestamp;pressure;altitude;pressure_sealevel;temperature;humidity
60654;BME280;46476;53.614;10.048;2022-09-03T00:00:14;101553.09;;;20.02;41.15
60654;BME280;46476;53.614;10.048;2022-09-03T00:08:15;101548.22;;;19.97;41.17
60654;BME280;46476;53.614;10.048;2022-09-03T00:10:50;101552.00;;;19.96;41.56
60654;BME280;46476;53.614;10.048;2022-09-03T00:13:29;101546.31;;;19.98;41.26
60654;BME280;46476;53.614;10.048;2022-09-03T00:15:57;101542.50;;;19.99;41.20
60654;BME280;46476;53.614;10.048;2022-09-03T00:18:28;101541.47;;;20.00;41.30
60654;BME280;46476;53.614;10.048;2022-09-03T00:21:01;101555.22;;;20.00;41.10
60654;BME280;46476;53.614;10.048;2022-09-03T00:23:34;101541.41;;;19.93;41.46
60654;BME280;46476;53.614;10.048;2022-09-03T00:28:49;101548.91;;;19.84;41.52
60654;BME280;46476;53.614;10.048;2022-09-03T00:31:21;101552.78;;;19.75;41.46
60654;BME280;46476;53.614;10.048;2022-09-03T00:33:57;101550.03;;;19.75;41.66
60654;BME280;46476;53.614;10.048;2022-09-03T00:36:30;101543.94;;;19.79;41.73
60654;BME280;46476;53.614;10.048;2022-09-03T00:38:58;101544.53;;;19.75;41.84
60654;BME280;46476;53.614;10.048;2022-09-03T00:41:36;101542.00;;;19.73;41.94
60654;BME280;46476;53.614;10.048;2022-09-03T01:00:25;101539.63;;;19.70;41.99
60654;BME280;46476;53.614;10.048;2022-09-03T01:20:17;101545.44;;;19.60;42.40
60654;BME280;46476;53.614;10.048;2022-09-03T01:26:26;101543.91;;;19.58;42.40
60654;BME280;46476;53.614;10.048;2022-09-03T01:32:24;101539.09;;;19.45;42.64
60654;BME280;46476;53.614;10.048;2022-09-03T01:37:46;101534.25;;;19.47;42.69
60654;BME280;46476;53.614;10.048;2022-09-03T01:45:55;101534.16;;;19.55;42.48
60654;BME280;46476;53.614;10.048;2022-09-03T01:51:27;101531.16;;;19.50;42.51
60654;BME280;46476;53.614;10.048;2022-09-03T01:59:22;101530.88;;;19.30;42.36
60654;BME280;46476;53.614;10.048;2022-09-03T02:01:57;101534.28;;;19.32;42.81
60654;BME280;46476;53.614;10.048;2022-09-03T02:04:26;101534.47;;;19.31;42.70
60654;BME280;46476;53.614;10.048;2022-09-03T02:06:54;101528.59;;;19.34;42.69
60654;BME280;46476;53.614;10.048;2022-09-03T02:09:22;101534.75;;;19.36;42.78
60654;BME280;46476;53.614;10.048;2022-09-03T02:11:54;101532.19;;;19.34;42.69
60654;BME280;46476;53.614;10.048;2022-09-03T02:14:24;101535.31;;;19.31;42.56
60654;BME280;46476;53.614;10.048;2022-09-03T02:16:50;101525.38;;;19.30;42.65
60654;BME280;46476;53.614;10.048;2022-09-03T02:19:16;101532.09;;;19.27;42.69
60654;BME280;46476;53.614;10.048;2022-09-03T02:21:51;101537.41;;;19.29;42.77
60654;BME280;46476;53.614;10.048;2022-09-03T02:24:17;101530.22;;;19.28;42.91
60654;BME280;46476;53.614;10.048;2022-09-03T02:26:43;101534.56;;;19.22;42.82
60654;BME280;46476;53.614;10.048;2022-09-03T02:29:09;101535.03;;;19.26;42.78
60654;BME280;46476;53.614;10.048;2022-09-03T02:31:35;101530.59;;;19.25;42.75
60654;BME280;46476;53.614;10.048;2022-09-03T02:34:00;101526.91;;;19.18;42.76
60654;BME280;46476;53.614;10.048;2022-09-03T02:36:29;101529.47;;;19.19;42.94
60654;BME280;46476;53.614;10.048;2022-09-03T02:38:56;101536.28;;;19.23;42.73
60654;BME280;46476;53.614;10.048;2022-09-03T02:41:21;101538.19;;;19.23;42.70
60654;BME280;46476;53.614;10.048;2022-09-03T02:43:57;101536.47;;;19.22;42.82
60654;BME280;46476;53.614;10.048;2022-09-03T02:46:35;101524.81;;;19.20;42.60
60654;BME280;46476;53.614;10.048;2022-09-03T02:49:02;101526.03;;;19.17;42.85
60654;BME280;46476;53.614;10.048;2022-09-03T02:51:32;101535.31;;;19.16;42.86
60654;BME280;46476;53.614;10.048;2022-09-03T02:53:57;101533.63;;;19.15;42.87
60654;BME280;46476;53.614;10.048;2022-09-03T02:56:23;101532.19;;;19.04;43.01
60654;BME280;46476;53.614;10.048;2022-09-03T02:58:52;101540.63;;;19.03;43.17
60654;BME280;46476;53.614;10.048;2022-09-03T03:01:17;101535.81;;;19.05;43.10
60654;BME280;46476;53.614;10.048;2022-09-03T03:03:42;101531.34;;;19.04;42.95
60654;BME280;46476;53.614;10.048;2022-09-03T03:06:08;101531.06;;;18.99;42.85
60654;BME280;46476;53.614;10.048;2022-09-03T03:08:34;101522.44;;;19.02;43.09
60654;BME280;46476;53.614;10.048;2022-09-03T03:10:59;101522.84;;;18.99;43.20
60654;BME280;46476;53.614;10.048;2022-09-03T03:13:27;101525.03;;;19.03;43.05
60654;BME280;46476;53.614;10.048;2022-09-03T03:16:04;101525.66;;;19.05;43.02
60654;BME280;46476;53.614;10.048;2022-09-03T03:18:33;101525.31;;;19.08;42.92
60654;BME280;46476;53.614;10.048;2022-09-03T03:21:09;101525.13;;;19.10;42.87
60654;BME280;46476;53.614;10.048;2022-09-03T03:23:37;101522.72;;;19.07;43.06
60654;BME280;46476;53.614;10.048;2022-09-03T03:26:11;101518.94;;;19.08;43.01
60654;BME280;46476;53.614;10.048;2022-09-03T03:28:36;101517.63;;;19.04;43.33
60654;BME280;46476;53.614;10.048;2022-09-03T03:31:10;101518.78;;;18.94;43.29
60654;BME280;46476;53.614;10.048;2022-09-03T03:33:36;101525.81;;;18.89;43.41
60654;BME280;46476;53.614;10.048;2022-09-03T03:36:04;101531.00;;;18.84;43.46
60654;BME280;46476;53.614;10.048;2022-09-03T03:38:31;101533.75;;;18.84;43.49
60654;BME280;46476;53.614;10.048;2022-09-03T03:40:56;101532.91;;;18.83;43.47
60654;BME280;46476;53.614;10.048;2022-09-03T03:43:21;101525.63;;;18.75;43.58
60654;BME280;46476;53.614;10.048;2022-09-03T03:45:57;101531.50;;;18.87;43.47
60654;BME280;46476;53.614;10.048;2022-09-03T03:48:22;101538.19;;;18.85;43.62
60654;BME280;46476;53.614;10.048;2022-09-03T03:50:48;101539.91;;;18.86;43.39
60654;BME280;46476;53.614;10.048;2022-09-03T03:53:13;101542.66;;;18.86;43.37
60654;BME280;46476;53.614;10.048;2022-09-03T03:55:38;101544.72;;;18.84;43.41
60654;BME280;46476;53.614;10.048;2022-09-03T03:58:04;101540.75;;;18.86;43.45
60654;BME280;46476;53.614;10.048;2022-09-03T04:00:29;101535.66;;;18.83;43.48
60654;BME280;46476;53.614;10.048;2022-09-03T04:02:55;101536.41;;;18.77;43.55
60654;BME280;46476;53.614;10.048;2022-09-03T04:05:21;101535.91;;;18.73;43.61
60654;BME280;46476;53.614;10.048;2022-09-03T04:07:46;101539.31;;;18.75;43.56
60654;BME280;46476;53.614;10.048;2022-09-03T04:10:12;101540.66;;;18.79;43.62
60654;BME280;46476;53.614;10.048;2022-09-03T04:12:39;101538.59;;;18.82;43.33
60654;BME280;46476;53.614;10.048;2022-09-03T04:15:04;101536.69;;;18.82;43.20
60654;BME280;46476;53.614;10.048;2022-09-03T04:17:30;101541.53;;;18.80;43.25
60654;BME280;46476;53.614;10.048;2022-09-03T04:19:56;101541.69;;;18.78;43.35
60654;BME280;46476;53.614;10.048;2022-09-03T04:22:21;101545.66;;;18.76;43.40
60654;BME280;46476;53.614;10.048;2022-09-03T04:24:46;101544.63;;;18.77;43.33
60654;BME280;46476;53.614;10.048;2022-09-03T04:27:12;101530.06;;;18.76;43.40
60654;BME280;46476;53.614;10.048;2022-09-03T04:29:37;101529.59;;;18.73;43.43
60654;BME280;46476;53.614;10.048;2022-09-03T04:32:03;101530.63;;;18.72;43.42
60654;BME280;46476;53.614;10.048;2022-09-03T04:34:50;101536.97;;;18.72;43.45
60654;BME280;46476;53.614;10.048;2022-09-03T04:37:15;101532.81;;;18.76;44.21
60654;BME280;46476;53.614;10.048;2022-09-03T04:39:43;101538.34;;;18.91;44.00
60654;BME280;46476;53.614;10.048;2022-09-03T04:42:09;101542.03;;;18.99;43.75
60654;BME280;46476;53.614;10.048;2022-09-03T04:44:34;101545.38;;;19.09;43.64
60654;BME280;46476;53.614;10.048;2022-09-03T04:47:03;101541.38;;;19.26;43.75
60654;BME280;46476;53.614;10.048;2022-09-03T04:49:28;101546.03;;;19.41;43.37
60654;BME280;46476;53.614;10.048;2022-09-03T04:51:54;101540.41;;;19.49;43.03
60654;BME280;46476;53.614;10.048;2022-09-03T04:54:19;101553.13;;;19.50;42.55
60654;BME280;46476;53.614;10.048;2022-09-03T04:56:44;101554.44;;;19.54;42.77
60654;BME280;46476;53.614;10.048;2022-09-03T04:59:10;101556.59;;;19.59;42.43
60654;BME280;46476;53.614;10.048;2022-09-03T05:01:37;101550.66;;;19.55;42.15
60654;BME280;46476;53.614;10.048;2022-09-03T05:04:03;101551.97;;;19.44;42.44
60654;BME280;46476;53.614;10.048;2022-09-03T05:06:29;101553.03;;;19.43;42.46
60654;BME280;46476;53.614;10.048;2022-09-03T05:08:56;101554.72;;;19.44;42.59
60654;BME280;46476;53.614;10.048;2022-09-03T05:11:24;101555.88;;;19.50;42.55
60654;BME280;46476;53.614;10.048;2022-09-03T05:13:51;101551.59;;;19.48;41.89
60654;BME280;46476;53.614;10.048;2022-09-03T05:16:18;101556.34;;;19.39;42.27
60654;BME280;46476;53.614;10.048;2022-09-03T05:18:44;101555.50;;;19.38;42.33
60654;BME280;46476;53.614;10.048;2022-09-03T05:21:15;101550.75;;;19.32;42.41
60654;BME280;46476;53.614;10.048;2022-09-03T05:23:43;101550.84;;;19.39;42.48
60654;BME280;46476;53.614;10.048;2022-09-03T05:26:18;101550.09;;;19.45;42.14
60654;BME280;46476;53.614;10.048;2022-09-03T05:28:45;101546.47;;;19.44;42.12
60654;BME280;46476;53.614;10.048;2022-09-03T05:31:11;101541.84;;;19.45;42.37
60654;BME280;46476;53.614;10.048;2022-09-03T05:33:45;101533.69;;;19.52;42.64
60654;BME280;46476;53.614;10.048;2022-09-03T05:36:15;101533.38;;;19.61;42.51
60654;BME280;46476;53.614;10.048;2022-09-03T05:38:42;101532.59;;;19.68;42.39
60654;BME280;46476;53.614;10.048;2022-09-03T05:41:09;101528.63;;;19.70;43.19
60654;BME280;46476;53.614;10.048;2022-09-03T05:43:35;101546.25;;;19.76;42.47
60654;BME280;46476;53.614;10.048;2022-09-03T05:48:28;101545.66;;;19.95;42.31
60654;BME280;46476;53.614;10.048;2022-09-03T05:51:06;101546.56;;;20.03;41.86
60654;BME280;46476;53.614;10.048;2022-09-03T05:53:34;101537.28;;;20.04;42.32
60654;BME280;46476;53.614;10.048;2022-09-03T05:56:01;101540.97;;;20.11;41.77
60654;BME280;46476;53.614;10.048;2022-09-03T05:58:35;101543.97;;;20.16;41.25
60654;BME280;46476;53.614;10.048;2022-09-03T06:01:14;101552.59;;;20.13;41.15
60654;BME280;46476;53.614;10.048;2022-09-03T06:03:42;101553.00;;;20.10;41.27
60654;BME280;46476;53.614;10.048;2022-09-03T06:06:07;101555.09;;;20.08;41.23
60654;BME280;46476;53.614;10.048;2022-09-03T06:08:34;101552.81;;;20.11;41.28
60654;BME280;46476;53.614;10.048;2022-09-03T06:11:00;101547.16;;;20.20;41.69
60654;BME280;46476;53.614;10.048;2022-09-03T06:13:28;101549.28;;;20.18;41.48
60654;BME280;46476;53.614;10.048;2022-09-03T06:16:01;101552.81;;;20.11;41.06
60654;BME280;46476;53.614;10.048;2022-09-03T06:18:27;101544.84;;;20.02;41.34
60654;BME280;46476;53.614;10.048;2022-09-03T06:20:58;101550.50;;;19.93;41.53
60654;BME280;46476;53.614;10.048;2022-09-03T06:23:24;101554.75;;;19.96;41.75
60654;BME280;46476;53.614;10.048;2022-09-03T06:26:09;101557.09;;;19.99;41.26
60654;BME280;46476;53.614;10.048;2022-09-03T06:28:37;101548.13;;;19.90;41.40
60654;BME280;46476;53.614;10.048;2022-09-03T06:31:05;101557.34;;;19.83;41.56
60654;BME280;46476;53.614;10.048;2022-09-03T06:33:33;101550.97;;;19.82;41.63
60654;BME280;46476;53.614;10.048;2022-09-03T06:36:00;101543.00;;;19.87;41.16
60654;BME280;46476;53.614;10.048;2022-09-03T06:38:27;101547.88;;;19.85;41.68
60654;BME280;46476;53.614;10.048;2022-09-03T06:40:57;101558.25;;;19.90;41.89
60654;BME280;46476;53.614;10.048;2022-09-03T06:43:27;101552.75;;;19.90;41.53
60654;BME280;46476;53.614;10.048;2022-09-03T06:48:19;101558.94;;;19.92;41.83
60654;BME280;46476;53.614;10.048;2022-09-03T06:51:08;101552.41;;;19.93;41.58
60654;BME280;46476;53.614;10.048;2022-09-03T06:53:36;101551.53;;;19.92;41.67
60654;BME280;46476;53.614;10.048;2022-09-03T06:56:04;101558.81;;;20.00;41.63
60654;BME280;46476;53.614;10.048;2022-09-03T06:58:33;101566.47;;;20.05;41.54
60654;BME280;46476;53.614;10.048;2022-09-03T07:01:06;101567.06;;;20.00;41.34
60654;BME280;46476;53.614;10.048;2022-09-03T07:03:33;101558.66;;;19.87;41.31
60654;BME280;46476;53.614;10.048;2022-09-03T07:06:03;101565.22;;;19.71;41.66
60654;BME280;46476;53.614;10.048;2022-09-03T07:08:29;101563.03;;;19.66;41.82
60654;BME280;46476;53.614;10.048;2022-09-03T07:10:57;101560.56;;;19.71;41.74
60654;BME280;46476;53.614;10.048;2022-09-03T07:13:24;101570.97;;;19.76;41.75
60654;BME280;46476;53.614;10.048;2022-09-03T07:15:59;101560.28;;;19.81;41.75
60654;BME280;46476;53.614;10.048;2022-09-03T07:18:24;101565.19;;;19.86;41.78
60654;BME280;46476;53.614;10.048;2022-09-03T07:20:49;101563.56;;;19.91;41.97
60654;BME280;46476;53.614;10.048;2022-09-03T07:23:15;101564.31;;;20.00;41.73
60654;BME280;46476;53.614;10.048;2022-09-03T07:25:40;101564.00;;;20.10;41.63
60654;BME280;46476;53.614;10.048;2022-09-03T07:28:06;101564.63;;;20.12;41.26
60654;BME280;46476;53.614;10.048;2022-09-03T07:30:31;101570.41;;;20.17;41.36
60654;BME280;46476;53.614;10.048;2022-09-03T07:32:56;101567.84;;;20.16;41.24
60654;BME280;46476;53.614;10.048;2022-09-03T07:35:25;101566.25;;;20.21;41.46
60654;BME280;46476;53.614;10.048;2022-09-03T07:37:51;101572.19;;;20.25;41.46
60654;BME280;46476;53.614;10.048;2022-09-03T07:40:17;101560.59;;;20.30;41.65
60654;BME280;46476;53.614;10.048;2022-09-03T07:42:44;101555.72;;;20.32;41.66
60654;BME280;46476;53.614;10.048;2022-09-03T07:45:10;101563.00;;;20.39;41.54
60654;BME280;46476;53.614;10.048;2022-09-03T07:47:36;101563.09;;;20.46;41.19
60654;BME280;46476;53.614;10.048;2022-09-03T07:50:03;101562.28;;;20.52;41.08
60654;BME280;46476;53.614;10.048;2022-09-03T07:52:29;101564.66;;;20.55;41.15
60654;BME280;46476;53.614;10.048;2022-09-03T07:54:54;101564.03;;;20.60;41.15
60654;BME280;46476;53.614;10.048;2022-09-03T07:57:20;101566.41;;;20.63;41.27
60654;BME280;46476;53.614;10.048;2022-09-03T07:59:45;101563.75;;;20.70;41.01
60654;BME280;46476;53.614;10.048;2022-09-03T08:02:10;101562.19;;;20.67;40.88
60654;BME280;46476;53.614;10.048;2022-09-03T08:04:36;101571.78;;;20.71;41.19
60654;BME280;46476;53.614;10.048;2022-09-03T08:07:02;101570.13;;;20.77;41.48
60654;BME280;46476;53.614;10.048;2022-09-03T08:09:28;101567.63;;;20.82;41.08
60654;BME280;46476;53.614;10.048;2022-09-03T08:11:53;101568.28;;;20.84;40.97
60654;BME280;46476;53.614;10.048;2022-09-03T08:14:19;101561.78;;;20.92;41.08
60654;BME280;46476;53.614;10.048;2022-09-03T08:16:45;101564.59;;;20.99;40.96
60654;BME280;46476;53.614;10.048;2022-09-03T08:19:15;101562.75;;;21.06;40.82
60654;BME280;46476;53.614;10.048;2022-09-03T08:21:42;101554.72;;;21.11;40.75
60654;BME280;46476;53.614;10.048;2022-09-03T08:24:09;101553.06;;;21.17;40.77
60654;BME280;46476;53.614;10.048;2022-09-03T08:26:37;101561.09;;;21.18;40.59
60654;BME280;46476;53.614;10.048;2022-09-03T08:29:03;101555.59;;;21.18;40.36
60654;BME280;46476;53.614;10.048;2022-09-03T08:31:30;101553.50;;;21.20;40.28
60654;BME280;46476;53.614;10.048;2022-09-03T08:33:58;101554.78;;;21.24;40.54
60654;BME280;46476;53.614;10.048;2022-09-03T08:36:26;101551.25;;;21.31;40.42
60654;BME280;46476;53.614;10.048;2022-09-03T08:38:53;101548.06;;;21.34;40.46
60654;BME280;46476;53.614;10.048;2022-09-03T08:50:06;101548.50;;;21.37;40.32
60654;BME280;46476;53.614;10.048;2022-09-03T08:52:50;101546.84;;;21.43;40.34
60654;BME280;46476;53.614;10.048;2022-09-03T08:55:28;101544.53;;;21.47;39.94
60654;BME280;46476;53.614;10.048;2022-09-03T08:58:08;101556.84;;;21.51;40.06
60654;BME280;46476;53.614;10.048;2022-09-03T09:03:36;101550.91;;;21.47;39.93
60654;BME280;46476;53.614;10.048;2022-09-03T09:14:38;101549.03;;;21.54;40.32
60654;BME280;46476;53.614;10.048;2022-09-03T09:22:51;101541.47;;;21.63;39.97
60654;BME280;46476;53.614;10.048;2022-09-03T09:25:21;101540.81;;;21.68;39.83
60654;BME280;46476;53.614;10.048;2022-09-03T09:27:50;101546.53;;;21.66;39.61
60654;BME280;46476;53.614;10.048;2022-09-03T09:30:16;101538.28;;;21.66;39.97
60654;BME280;46476;53.614;10.048;2022-09-03T09:32:42;101547.00;;;21.70;39.37
60654;BME280;46476;53.614;10.048;2022-09-03T09:35:08;101537.00;;;21.69;39.93
60654;BME280;46476;53.614;10.048;2022-09-03T09:37:48;101533.00;;;21.71;39.43
60654;BME280;46476;53.614;10.048;2022-09-03T09:40:35;101532.38;;;21.76;39.45
60654;BME280;46476;53.614;10.048;2022-09-03T09:43:18;101529.84;;;21.74;39.27
60654;BME280;46476;53.614;10.048;2022-09-03T09:45:50;101528.97;;;21.74;39.51
60654;BME280;46476;53.614;10.048;2022-09-03T09:48:48;101528.16;;;21.80;39.80
60654;BME280;46476;53.614;10.048;2022-09-03T09:51:18;101526.06;;;21.89;39.78
60654;BME280;46476;53.614;10.048;2022-09-03T09:53:43;101527.13;;;21.95;39.18
60654;BME280;46476;53.614;10.048;2022-09-03T09:56:20;101523.94;;;21.98;38.61
60654;BME280;46476;53.614;10.048;2022-09-03T09:58:46;101519.50;;;21.97;39.49
60654;BME280;46476;53.614;10.048;2022-09-03T10:01:23;101518.88;;;22.01;38.81
60654;BME280;46476;53.614;10.048;2022-09-03T10:03:56;101514.84;;;22.04;39.28
60654;BME280;46476;53.614;10.048;2022-09-03T10:06:22;101512.09;;;22.04;37.98
60654;BME280;46476;53.614;10.048;2022-09-03T10:09:17;101520.13;;;22.05;37.65
60654;BME280;46476;53.614;10.048;2022-09-03T10:11:48;101518.25;;;22.06;38.08
60654;BME280;46476;53.614;10.048;2022-09-03T10:14:22;101521.84;;;22.00;38.13
60654;BME280;46476;53.614;10.048;2022-09-03T10:16:55;101514.63;;;21.99;38.10
60654;BME280;46476;53.614;10.048;2022-09-03T10:19:30;101505.06;;;22.01;37.70
60654;BME280;46476;53.614;10.048;2022-09-03T10:22:08;101505.94;;;22.02;37.57
60654;BME280;46476;53.614;10.048;2022-09-03T10:24:46;101510.38;;;22.03;38.15
60654;BME280;46476;53.614;10.048;2022-09-03T10:27:15;101505.94;;;22.02;36.29
60654;BME280;46476;53.614;10.048;2022-09-03T10:29:42;101497.00;;;21.93;34.68
60654;BME280;46476;53.614;10.048;2022-09-03T10:37:21;101488.28;;;21.76;34.78
60654;BME280;46476;53.614;10.048;2022-09-03T10:42:42;101501.63;;;21.79;36.10
60654;BME280;46476;53.614;10.048;2022-09-03T10:48:25;101495.75;;;21.89;35.26
60654;BME280;46476;53.614;10.048;2022-09-03T10:51:05;101500.63;;;22.00;34.41
60654;BME280;46476;53.614;10.048;2022-09-03T10:59:07;101481.13;;;22.08;34.07
60654;BME280;46476;53.614;10.048;2022-09-03T11:04:21;101475.84;;;22.14;34.22
60654;BME280;46476;53.614;10.048;2022-09-03T11:06:52;101472.22;;;22.13;35.28
60654;BME280;46476;53.614;10.048;2022-09-03T11:09:23;101473.91;;;22.14;35.01
60654;BME280;46476;53.614;10.048;2022-09-03T11:11:55;101472.41;;;22.12;33.71
60654;BME280;46476;53.614;10.048;2022-09-03T11:14:31;101465.00;;;22.12;33.97
60654;BME280;46476;53.614;10.048;2022-09-03T11:17:03;101472.63;;;22.10;34.52
60654;BME280;46476;53.614;10.048;2022-09-03T11:20:09;101462.66;;;22.16;35.11
60654;BME280;46476;53.614;10.048;2022-09-03T11:22:35;101469.47;;;22.20;34.88
60654;BME280;46476;53.614;10.048;2022-09-03T11:25:04;101460.56;;;22.18;34.22
60654;BME280;46476;53.614;10.048;2022-09-03T11:30:11;101469.47;;;22.20;34.08
60654;BME280;46476;53.614;10.048;2022-09-03T11:35:40;101468.19;;;22.16;33.32
60654;BME280;46476;53.614;10.048;2022-09-03T11:43:42;101465.84;;;22.19;33.84
60654;BME280;46476;53.614;10.048;2022-09-03T11:48:50;101459.28;;;22.20;33.78
60654;BME280;46476;53.614;10.048;2022-09-03T11:51:32;101453.34;;;22.17;33.68
60654;BME280;46476;53.614;10.048;2022-09-03T11:56:37;101446.13;;;22.22;33.72
60654;BME280;46476;53.614;10.048;2022-09-03T12:01:42;101437.00;;;22.22;33.34
60654;BME280;46476;53.614;10.048;2022-09-03T12:04:12;101441.88;;;22.27;33.13
60654;BME280;46476;53.614;10.048;2022-09-03T12:12:21;101440.41;;;22.37;33.30
60654;BME280;46476;53.614;10.048;2022-09-03T12:17:52;101436.38;;;22.47;32.96
60654;BME280;46476;53.614;10.048;2022-09-03T12:20:38;101448.28;;;22.47;33.18
60654;BME280;46476;53.614;10.048;2022-09-03T12:23:03;101435.94;;;22.43;32.55
60654;BME280;46476;53.614;10.048;2022-09-03T12:25:29;101430.88;;;22.40;33.31
60654;BME280;46476;53.614;10.048;2022-09-03T12:27:54;101429.81;;;22.41;33.73
60654;BME280;46476;53.614;10.048;2022-09-03T12:30:23;101436.38;;;22.40;33.26
60654;BME280;46476;53.614;10.048;2022-09-03T12:32:49;101431.69;;;22.34;33.65
60654;BME280;46476;53.614;10.048;2022-09-03T12:35:19;101431.69;;;22.34;33.67
60654;BME280;46476;53.614;10.048;2022-09-03T12:37:45;101421.31;;;22.36;33.40
60654;BME280;46476;53.614;10.048;2022-09-03T12:40:18;101418.78;;;22.41;33.42
60654;BME280;46476;53.614;10.048;2022-09-03T12:42:45;101413.47;;;22.46;33.29
60654;BME280;46476;53.614;10.048;2022-09-03T12:45:11;101414.50;;;22.52;33.02
60654;BME280;46476;53.614;10.048;2022-09-03T12:47:41;101425.31;;;22.53;32.97
60654;BME280;46476;53.614;10.048;2022-09-03T12:50:12;101422.56;;;22.53;32.94
60654;BME280;46476;53.614;10.048;2022-09-03T12:52:45;101426.81;;;22.49;32.81
60654;BME280;46476;53.614;10.048;2022-09-03T13:00:20;101416.44;;;22.51;32.55
60654;BME280;46476;53.614;10.048;2022-09-03T13:05:16;101404.53;;;22.57;32.35
60654;BME280;46476;53.614;10.048;2022-09-03T13:07:47;101411.31;;;22.62;32.29
60654;BME280;46476;53.614;10.048;2022-09-03T13:10:33;101395.38;;;22.64;32.21
60654;BME280;46476;53.614;10.048;2022-09-03T13:13:15;101401.97;;;22.63;32.19
60654;BME280;46476;53.614;10.048;2022-09-03T13:15:54;101398.34;;;22.62;31.63
60654;BME280;46476;53.614;10.048;2022-09-03T13:18:30;101392.22;;;22.60;31.37
60654;BME280;46476;53.614;10.048;2022-09-03T13:28:55;101407.94;;;22.46;32.12
60654;BME280;46476;53.614;10.048;2022-09-03T13:31:31;101403.03;;;22.48;32.55
60654;BME280;46476;53.614;10.048;2022-09-03T13:34:05;101407.50;;;22.49;32.03
60654;BME280;46476;53.614;10.048;2022-09-03T13:36:48;101404.75;;;22.49;31.63
60654;BME280;46476;53.614;10.048;2022-09-03T13:39:37;101403.47;;;22.45;31.63
60654;BME280;46476;53.614;10.048;2022-09-03T13:42:10;101397.13;;;22.45;31.77
60654;BME280;46476;53.614;10.048;2022-09-03T13:44:47;101401.56;;;22.46;31.95
60654;BME280;46476;53.614;10.048;2022-09-03T13:53:02;101396.91;;;22.46;31.28
60654;BME280;46476;53.614;10.048;2022-09-03T14:00:29;101393.09;;;22.47;31.90
60654;BME280;46476;53.614;10.048;2022-09-03T14:03:06;101391.81;;;22.50;31.69
60654;BME280;46476;53.614;10.048;2022-09-03T14:08:10;101383.72;;;22.55;31.89
60654;BME280;46476;53.614;10.048;2022-09-03T14:11:08;101387.31;;;22.55;31.46
60654;BME280;46476;53.614;10.048;2022-09-03T14:19:18;101390.09;;;22.55;31.68
60654;BME280;46476;53.614;10.048;2022-09-03T14:21:51;101383.50;;;22.56;31.55
60654;BME280;46476;53.614;10.048;2022-09-03T14:24:25;101385.63;;;22.54;31.22
60654;BME280;46476;53.614;10.048;2022-09-03T14:26:56;101390.53;;;22.52;31.64
60654;BME280;46476;53.614;10.048;2022-09-03T14:29:27;101384.16;;;22.52;31.40
60654;BME280;46476;53.614;10.048;2022-09-03T14:38:29;101382.44;;;22.51;31.18
60654;BME280;46476;53.614;10.048;2022-09-03T14:40:30;101378.84;;;22.50;30.85
60654;BME280;46476;53.614;10.048;2022-09-03T14:44:00;101387.97;;;22.51;30.73
60654;BME280;46476;53.614;10.048;2022-09-03T14:46:05;101378.41;;;22.53;31.16
60654;BME280;46476;53.614;10.048;2022-09-03T14:56:44;101381.81;;;22.55;30.92
60654;BME280;46476;53.614;10.048;2022-09-03T15:07:34;101373.53;;;22.55;30.38
60654;BME280;46476;53.614;10.048;2022-09-03T15:15:00;101379.50;;;22.52;30.74
60654;BME280;46476;53.614;10.048;2022-09-03T15:17:35;101390.53;;;22.52;30.88
60654;BME280;46476;53.614;10.048;2022-09-03T15:20:35;101384.56;;;22.55;30.39
60654;BME280;46476;53.614;10.048;2022-09-03T15:23:22;101380.31;;;22.53;30.27
60654;BME280;46476;53.614;10.048;2022-09-03T15:31:21;101372.69;;;22.48;29.62
60654;BME280;46476;53.614;10.048;2022-09-03T15:34:11;101381.59;;;22.50;30.48
60654;BME280;46476;53.614;10.048;2022-09-03T15:36:40;101376.31;;;22.49;30.75
60654;BME280;46476;53.614;10.048;2022-09-03T15:39:22;101386.91;;;22.52;30.50
60654;BME280;46476;53.614;10.048;2022-09-03T15:42:09;101381.16;;;22.53;30.72
60654;BME280;46476;53.614;10.048;2022-09-03T15:44:45;101390.09;;;22.55;30.27
60654;BME280;46476;53.614;10.048;2022-09-03T15:47:30;101392.00;;;22.55;30.08
60654;BME280;46476;53.614;10.048;2022-09-03T15:55:41;101379.47;;;22.46;30.43
60654;BME280;46476;53.614;10.048;2022-09-03T15:58:37;101378.44;;;22.47;30.32
60654;BME280;46476;53.614;10.048;2022-09-03T16:01:13;101377.78;;;22.51;30.62
60654;BME280;46476;53.614;10.048;2022-09-03T16:03:55;101388.59;;;22.53;30.64
60654;BME280;46476;53.614;10.048;2022-09-03T16:06:49;101389.44;;;22.53;30.76
60654;BME280;46476;53.614;10.048;2022-09-03T16:10:00;101385.84;;;22.53;30.78
60654;BME280;46476;53.614;10.048;2022-09-03T16:15:35;101396.25;;;22.51;31.05
60654;BME280;46476;53.614;10.048;2022-09-03T16:20:55;101388.41;;;22.48;30.66
60654;BME280;46476;53.614;10.048;2022-09-03T16:29:24;101394.38;;;22.45;30.91
60654;BME280;46476;53.614;10.048;2022-09-03T16:37:27;101390.13;;;22.42;30.93
60654;BME280;46476;53.614;10.048;2022-09-03T16:40:18;101394.78;;;22.41;31.13
60654;BME280;46476;53.614;10.048;2022-09-03T16:43:30;101393.72;;;22.42;31.20
60654;BME280;46476;53.614;10.048;2022-09-03T16:48:58;101386.69;;;22.33;30.52
60654;BME280;46476;53.614;10.048;2022-09-03T17:04:58;101399.88;;;22.38;31.06
60654;BME280;46476;53.614;10.048;2022-09-03T17:13:19;101407.72;;;22.28;31.31
60654;BME280;46476;53.614;10.048;2022-09-03T17:21:49;101393.94;;;22.28;31.34